BXS2421 LEMH-LEBL
Flight info
| Callsign | BXS2421 |
|---|---|
| Flight time | N/A |
| Altitude | 18000 |
| Route | LUNIK Q255 OSTUR |
| Aircraft | B738/M-SDE2E3FGHIRWXY/LB1 |
Departure
| Time | 2026-04-22 16:27 |
|---|---|
| Airport | Menorca Airport (LEMH) |
Arrival
| Time | N/A |
|---|---|
| Airport | Josep Tarradellas Barcelona-El Prat Airport (LEBL) |
| Time | Latitude | Longitude | Altitude | Speed | Heading |
|---|---|---|---|---|---|
| 2026-04-22 16:23 | 39.86401 | 4.22303 | 287 ft | 0 kts | 9° |
| 2026-04-22 16:24 | 39.86447 | 4.22312 | 287 ft | 17 kts | 8° |
| 2026-04-22 16:25 | 39.86592 | 4.22331 | 289 ft | 16 kts | 352° |
| 2026-04-22 16:25 | 39.86809 | 4.22380 | 291 ft | 15 kts | 14° |
| 2026-04-22 16:25 | 39.86905 | 4.22375 | 298 ft | 10 kts | 312° |
| 2026-04-22 16:26 | 39.86923 | 4.22288 | 297 ft | 10 kts | 281° |
| 2026-04-22 16:26 | 39.86935 | 4.22197 | 298 ft | 11 kts | 266° |
| 2026-04-22 16:26 | 39.86883 | 4.22114 | 298 ft | 19 kts | 207° |
| 2026-04-22 16:26 | 39.86771 | 4.22013 | 300 ft | 22 kts | 216° |
| 2026-04-22 16:27 | 39.86612 | 4.21936 | 302 ft | 35 kts | 187° |
| 2026-04-22 16:27 | 39.86347 | 4.21883 | 302 ft | 87 kts | 189° |
| 2026-04-22 16:27 | 39.85477 | 4.21690 | 304 ft | 164 kts | 192° |
| 2026-04-22 16:27 | 39.84225 | 4.21437 | 963 ft | 184 kts | 188° |
| 2026-04-22 16:28 | 39.83017 | 4.21091 | 2262 ft | 178 kts | 207° |
| 2026-04-22 16:28 | 39.82000 | 4.20167 | 3220 ft | 177 kts | 220° |
| 2026-04-22 16:28 | 39.81222 | 4.18820 | 3652 ft | 203 kts | 256° |
| 2026-04-22 16:28 | 39.81349 | 4.16932 | 3885 ft | 227 kts | 296° |
| 2026-04-22 16:29 | 39.82534 | 4.15462 | 4311 ft | 242 kts | 330° |
| 2026-04-22 16:29 | 39.84031 | 4.14399 | 4904 ft | 248 kts | 328° |
| 2026-04-22 16:29 | 39.85490 | 4.13170 | 5523 ft | 255 kts | 324° |
| 2026-04-22 16:29 | 39.86965 | 4.11765 | 5965 ft | 270 kts | 322° |
| 2026-04-22 16:30 | 39.87959 | 4.10757 | 6489 ft | 274 kts | 321° |
| 2026-04-22 16:30 | 39.89938 | 4.08699 | 7883 ft | 271 kts | 321° |
| 2026-04-22 16:30 | 39.91402 | 4.07154 | 8780 ft | 274 kts | 320° |
| 2026-04-22 16:30 | 39.92871 | 4.05555 | 9686 ft | 276 kts | 320° |
| 2026-04-22 16:31 | 39.94350 | 4.03929 | 10469 ft | 283 kts | 320° |
| 2026-04-22 16:31 | 39.95903 | 4.02218 | 10709 ft | 309 kts | 320° |
| 2026-04-22 16:31 | 39.97621 | 4.00316 | 10906 ft | 333 kts | 319° |
| 2026-04-22 16:31 | 39.99411 | 3.98309 | 11306 ft | 348 kts | 319° |
| 2026-04-22 16:32 | 40.01245 | 3.96214 | 12038 ft | 352 kts | 318° |
| 2026-04-22 16:32 | 40.03097 | 3.94060 | 12868 ft | 354 kts | 317° |
| 2026-04-22 16:32 | 40.04929 | 3.91893 | 13622 ft | 358 kts | 317° |
| 2026-04-22 16:32 | 40.06774 | 3.89676 | 14299 ft | 362 kts | 316° |
| 2026-04-22 16:33 | 40.08615 | 3.87427 | 14978 ft | 365 kts | 315° |
| 2026-04-22 16:33 | 40.10469 | 3.85127 | 15648 ft | 368 kts | 315° |
| 2026-04-22 16:33 | 40.12318 | 3.82796 | 15979 ft | 370 kts | 314° |
| 2026-04-22 16:33 | 40.14175 | 3.80423 | 16018 ft | 377 kts | 314° |
| 2026-04-22 16:34 | 40.16043 | 3.78004 | 16013 ft | 379 kts | 314° |
| 2026-04-22 16:34 | 40.17893 | 3.75544 | 16023 ft | 377 kts | 313° |
| 2026-04-22 16:34 | 40.19701 | 3.73068 | 16027 ft | 376 kts | 312° |
| 2026-04-22 16:34 | 40.21495 | 3.70579 | 16030 ft | 376 kts | 312° |
| 2026-04-22 16:35 | 40.23289 | 3.68081 | 16026 ft | 376 kts | 312° |
| 2026-04-22 16:35 | 40.25083 | 3.65583 | 16026 ft | 377 kts | 312° |
| 2026-04-22 16:35 | 40.26877 | 3.63084 | 16020 ft | 377 kts | 312° |
| 2026-04-22 16:35 | 40.28671 | 3.60588 | 16028 ft | 377 kts | 312° |
| 2026-04-22 16:36 | 40.30471 | 3.58084 | 16020 ft | 378 kts | 312° |
| 2026-04-22 16:36 | 40.32321 | 3.55509 | 16028 ft | 378 kts | 312° |
| 2026-04-22 16:36 | 40.34124 | 3.52998 | 16020 ft | 378 kts | 312° |
| 2026-04-22 16:36 | 40.35952 | 3.50449 | 16018 ft | 378 kts | 312° |
| 2026-04-22 16:37 | 40.37759 | 3.47927 | 16029 ft | 378 kts | 312° |
| 2026-04-22 16:37 | 40.39543 | 3.45436 | 16020 ft | 378 kts | 312° |
| 2026-04-22 16:37 | 40.41533 | 3.42655 | 16019 ft | 379 kts | 311° |
| 2026-04-22 16:37 | 40.43333 | 3.40138 | 16025 ft | 378 kts | 311° |
| 2026-04-22 16:38 | 40.45065 | 3.37693 | 16023 ft | 378 kts | 311° |
| 2026-04-22 16:38 | 40.46862 | 3.35093 | 16022 ft | 378 kts | 310° |
| 2026-04-22 16:38 | 40.48616 | 3.32534 | 16019 ft | 378 kts | 310° |
| 2026-04-22 16:38 | 40.50356 | 3.29991 | 16020 ft | 378 kts | 310° |
| 2026-04-22 16:39 | 40.52139 | 3.27388 | 16025 ft | 378 kts | 310° |
| 2026-04-22 16:39 | 40.53894 | 3.24828 | 16031 ft | 378 kts | 310° |
| 2026-04-22 16:39 | 40.55656 | 3.22257 | 16029 ft | 378 kts | 310° |
| 2026-04-22 16:39 | 40.57418 | 3.19688 | 16027 ft | 378 kts | 310° |
| 2026-04-22 16:40 | 40.59179 | 3.17118 | 16025 ft | 378 kts | 310° |
| 2026-04-22 16:40 | 40.60941 | 3.14544 | 16026 ft | 378 kts | 310° |
| 2026-04-22 16:40 | 40.64463 | 3.09397 | 16023 ft | 378 kts | 310° |
| 2026-04-22 16:41 | 40.66228 | 3.06818 | 16023 ft | 378 kts | 310° |
| 2026-04-22 16:41 | 40.68011 | 3.04210 | 16026 ft | 379 kts | 310° |
| 2026-04-22 16:41 | 40.69778 | 3.01623 | 16025 ft | 379 kts | 310° |
| 2026-04-22 16:41 | 40.71540 | 2.99040 | 16026 ft | 379 kts | 310° |
| 2026-04-22 16:42 | 40.73302 | 2.96455 | 16032 ft | 379 kts | 310° |
| 2026-04-22 16:42 | 40.75059 | 2.93874 | 16031 ft | 379 kts | 310° |
| 2026-04-22 16:42 | 40.76801 | 2.91316 | 16019 ft | 367 kts | 310° |
| 2026-04-22 16:42 | 40.78425 | 2.88814 | 16013 ft | 351 kts | 304° |
| 2026-04-22 16:43 | 40.79697 | 2.86143 | 16025 ft | 339 kts | 299° |
| 2026-04-22 16:43 | 40.80855 | 2.83433 | 16041 ft | 339 kts | 298° |
| 2026-04-22 16:43 | 40.82020 | 2.80656 | 15794 ft | 342 kts | 298° |
| 2026-04-22 16:43 | 40.83165 | 2.77941 | 15507 ft | 338 kts | 298° |
| 2026-04-22 16:44 | 40.84314 | 2.75242 | 15115 ft | 336 kts | 298° |
| 2026-04-22 16:44 | 40.85094 | 2.73423 | 14841 ft | 334 kts | 298° |
| 2026-04-22 16:44 | 40.86240 | 2.70765 | 14420 ft | 332 kts | 299° |
| 2026-04-22 16:44 | 40.87382 | 2.68123 | 14019 ft | 330 kts | 299° |
| 2026-04-22 16:45 | 40.88521 | 2.65495 | 13503 ft | 329 kts | 299° |
| 2026-04-22 16:45 | 40.89652 | 2.62884 | 13062 ft | 327 kts | 299° |
| 2026-04-22 16:45 | 40.90782 | 2.60277 | 12627 ft | 325 kts | 299° |
| 2026-04-22 16:45 | 40.91899 | 2.57697 | 12213 ft | 323 kts | 299° |
| 2026-04-22 16:46 | 40.93024 | 2.55097 | 11792 ft | 321 kts | 299° |
| 2026-04-22 16:46 | 40.94145 | 2.52505 | 11389 ft | 319 kts | 299° |
| 2026-04-22 16:46 | 40.95242 | 2.49964 | 10988 ft | 317 kts | 298° |
| 2026-04-22 16:46 | 40.96320 | 2.47465 | 10590 ft | 309 kts | 298° |
| 2026-04-22 16:47 | 40.97356 | 2.45064 | 10458 ft | 291 kts | 298° |
| 2026-04-22 16:47 | 40.98335 | 2.42794 | 10319 ft | 277 kts | 298° |
| 2026-04-22 16:47 | 40.99268 | 2.40629 | 10189 ft | 267 kts | 298° |
| 2026-04-22 16:47 | 41.00299 | 2.38231 | 10071 ft | 262 kts | 298° |
| 2026-04-22 16:48 | 41.01217 | 2.36095 | 9983 ft | 269 kts | 298° |
| 2026-04-22 16:48 | 41.02100 | 2.33924 | 9875 ft | 267 kts | 296° |
| 2026-04-22 16:48 | 41.02931 | 2.31712 | 9772 ft | 268 kts | 295° |
| 2026-04-22 16:48 | 41.03756 | 2.29498 | 9672 ft | 269 kts | 295° |
| 2026-04-22 16:49 | 41.04589 | 2.27279 | 9568 ft | 269 kts | 295° |
| 2026-04-22 16:49 | 41.05382 | 2.25176 | 9428 ft | 268 kts | 295° |
| 2026-04-22 16:49 | 41.06209 | 2.22987 | 9214 ft | 267 kts | 295° |
| 2026-04-22 16:49 | 41.06953 | 2.20754 | 9058 ft | 266 kts | 283° |
| 2026-04-22 16:50 | 41.07087 | 2.18318 | 8953 ft | 265 kts | 268° |
| 2026-04-22 16:50 | 41.07032 | 2.15887 | 8806 ft | 266 kts | 268° |
| 2026-04-22 16:50 | 41.06966 | 2.13427 | 8675 ft | 267 kts | 268° |
| 2026-04-22 16:50 | 41.06901 | 2.10960 | 8539 ft | 267 kts | 268° |
| 2026-04-22 16:51 | 41.06840 | 2.08494 | 8402 ft | 267 kts | 268° |
| 2026-04-22 16:51 | 41.06782 | 2.06049 | 8269 ft | 267 kts | 268° |
| 2026-04-22 16:51 | 41.06725 | 2.03587 | 8131 ft | 266 kts | 268° |
| 2026-04-22 16:51 | 41.06669 | 2.01114 | 7996 ft | 265 kts | 268° |
| 2026-04-22 16:52 | 41.06615 | 1.98677 | 7863 ft | 264 kts | 267° |
| 2026-04-22 16:52 | 41.06559 | 1.96246 | 7730 ft | 261 kts | 267° |
| 2026-04-22 16:52 | 41.06506 | 1.93895 | 7582 ft | 249 kts | 267° |
| 2026-04-22 16:52 | 41.06455 | 1.91662 | 7452 ft | 237 kts | 267° |
| 2026-04-22 16:53 | 41.06717 | 1.89541 | 7315 ft | 236 kts | 294° |
| 2026-04-22 16:53 | 41.07736 | 1.87836 | 7244 ft | 243 kts | 320° |
| 2026-04-22 16:53 | 41.09217 | 1.86696 | 7148 ft | 250 kts | 332° |
| 2026-04-22 16:53 | 41.10810 | 1.85750 | 7019 ft | 251 kts | 334° |
| 2026-04-22 16:54 | 41.12221 | 1.84497 | 6855 ft | 243 kts | 305° |
| 2026-04-22 16:54 | 41.12863 | 1.82501 | 6747 ft | 234 kts | 274° |
| 2026-04-22 16:54 | 41.12732 | 1.80386 | 6645 ft | 230 kts | 252° |
| 2026-04-22 16:54 | 41.12143 | 1.78406 | 6538 ft | 233 kts | 245° |
| 2026-04-22 16:55 | 41.11454 | 1.76434 | 6404 ft | 236 kts | 244° |
| 2026-04-22 16:55 | 41.10748 | 1.74473 | 6277 ft | 234 kts | 244° |
| 2026-04-22 16:55 | 41.10057 | 1.72528 | 6138 ft | 233 kts | 244° |
| 2026-04-22 16:55 | 41.09368 | 1.70586 | 6012 ft | 231 kts | 244° |
| 2026-04-22 16:56 | 41.08698 | 1.68646 | 5896 ft | 234 kts | 244° |
| 2026-04-22 16:56 | 41.08221 | 1.67260 | 5832 ft | 237 kts | 244° |
| 2026-04-22 16:56 | 41.07531 | 1.65254 | 5701 ft | 239 kts | 244° |
| 2026-04-22 16:56 | 41.06845 | 1.63265 | 5571 ft | 235 kts | 244° |
| 2026-04-22 16:57 | 41.06181 | 1.61343 | 5437 ft | 223 kts | 244° |
| 2026-04-22 16:57 | 41.05554 | 1.59536 | 5318 ft | 210 kts | 245° |
| 2026-04-22 16:57 | 41.05378 | 1.57708 | 5259 ft | 197 kts | 283° |
| 2026-04-22 16:57 | 41.05982 | 1.56113 | 5266 ft | 196 kts | 306° |
| 2026-04-22 16:58 | 41.07053 | 1.54951 | 5185 ft | 204 kts | 332° |
| 2026-04-22 16:58 | 41.08443 | 1.54558 | 5102 ft | 209 kts | 2° |
| 2026-04-22 16:58 | 41.09825 | 1.55100 | 5031 ft | 209 kts | 30° |
| 2026-04-22 16:58 | 41.10899 | 1.56393 | 4883 ft | 209 kts | 57° |
| 2026-04-22 16:59 | 41.11692 | 1.58040 | 4793 ft | 210 kts | 59° |
| 2026-04-22 16:59 | 41.12464 | 1.59650 | 4674 ft | 207 kts | 59° |
| 2026-04-22 16:59 | 41.13226 | 1.61237 | 4561 ft | 200 kts | 59° |
| 2026-04-22 16:59 | 41.14024 | 1.62904 | 4499 ft | 236 kts | 59° |
| 2026-04-22 17:00 | 41.14872 | 1.64847 | 4334 ft | 250 kts | 63° |
| 2026-04-22 17:00 | 41.16342 | 1.68848 | 4057 ft | 225 kts | 67° |
| 2026-04-22 17:00 | 41.16980 | 1.70699 | 3956 ft | 206 kts | 67° |
| 2026-04-22 17:01 | 41.17553 | 1.72367 | 3850 ft | 190 kts | 68° |
| 2026-04-22 17:01 | 41.18099 | 1.73964 | 3883 ft | 204 kts | 68° |
| 2026-04-22 17:01 | 41.18705 | 1.75737 | 3934 ft | 209 kts | 67° |
| 2026-04-22 17:01 | 41.19313 | 1.77455 | 3818 ft | 209 kts | 65° |
| 2026-04-22 17:02 | 41.19945 | 1.79177 | 3744 ft | 228 kts | 66° |
| 2026-04-22 17:02 | 41.20615 | 1.81083 | 3679 ft | 214 kts | 67° |
| 2026-04-22 17:02 | 41.21204 | 1.82804 | 3517 ft | 191 kts | 68° |
| 2026-04-22 17:02 | 41.21705 | 1.84281 | 3419 ft | 164 kts | 68° |
| 2026-04-22 17:03 | 41.22153 | 1.85606 | 3267 ft | 152 kts | 68° |
| 2026-04-22 17:03 | 41.22604 | 1.86944 | 3173 ft | 160 kts | 68° |
| 2026-04-22 17:03 | 41.23064 | 1.88304 | 3115 ft | 164 kts | 68° |
| 2026-04-22 17:03 | 41.23536 | 1.89696 | 2909 ft | 163 kts | 68° |
| 2026-04-22 17:04 | 41.23999 | 1.91060 | 2703 ft | 160 kts | 67° |
| 2026-04-22 17:04 | 41.24451 | 1.92389 | 2460 ft | 157 kts | 67° |
| 2026-04-22 17:04 | 41.24900 | 1.93713 | 2288 ft | 158 kts | 68° |
| 2026-04-22 17:04 | 41.25346 | 1.95028 | 2094 ft | 158 kts | 67° |
| 2026-04-22 17:05 | 41.25800 | 1.96365 | 1894 ft | 156 kts | 66° |
| 2026-04-22 17:05 | 41.26248 | 1.97683 | 1691 ft | 157 kts | 68° |
| 2026-04-22 17:05 | 41.26691 | 1.98989 | 1484 ft | 156 kts | 67° |
| 2026-04-22 17:05 | 41.27132 | 2.00284 | 1278 ft | 152 kts | 67° |
| 2026-04-22 17:06 | 41.27280 | 2.00719 | 1195 ft | 152 kts | 68° |